Easton, Kansas
Current Conditions -  °F | °C
As of 5:53 PM on Sunday 21 Dec 2014 (Local Time) from KMCI Reporting Station
Overcast Overcast  
Wind Chill: 37°   Ceiling: 1100
Heat Index: 44°   Visibility: 8mi
Dew Point: 41°   Wind: 14mph
Humidity: 89%   Direction: 170°S
Pressure: 29.81"   Gusts: NA
Location:  39.34°N, 95.12°W
Report Text: KMCI 212353Z 17012KT 8SM OVC011 07/05 A2981 RMK AO2 SLP097 T00670050 10072 20056 57009
Loading
Personal Weather Stations






























Interactive Weather Map New forecast layout! Learn more

10-Day Weather Forecast

Advertisements
Track Severe Weather on mobile